Terminal Aerodrome Forecast
Issued by NWS Albany, NY

Home | Current Version | Previous Version | Text Only | Print | Product List | Glossary On
Versions: 1 2 3 4 5 6 7 8 9 10 11 12 13 14 15 16 17 18 19 20 21 22 23 24 25 26 27 28
544
FTUS41 KALY 181141
TAFALB
TAF
KALB 181141Z 1812/1912 16005KT P6SM SCT120 BKN250
     FM181500 17010G16KT P6SM BKN100
     FM182000 17012G22KT 6SM -RA SCT025 OVC040
     FM190000 17012G20KT 4SM -RA BR OVC015
     FM190300 17010G18KT 3SM -RA BR OVC007
     FM190900 20015G25KT 4SM -RA BR OVC015=

USA.gov is the U.S. government's official web portal to all federal, state and local government web resources and services.